ESCM

Uppsala Airport

Sweden
METAR ESCM 151920Z AUTO 24008KT 9999 NCD 03/02 Q1018
Observed Flight Rules
Feb-15 @ 19:20 UTC (29 minutes ago) Visual Flight Rules
Wind Visibility Clouds
240° at 8 knots 10,000+ meters
  • Clear skies
Temperatures Readings
Current 3°C / 37°F
Dewpoint 2°C / 36°F
Humidity 93%
Altimeter 30.06" Hg
Pressure 1017.92 hPa
Elevation 41
METAR ESCM 151920Z AUTO 24008KT 9999 NCD 03/02 Q1018
Observed Flight Rules
Feb-15 @ 19:20 UTC
(29 minutes ago)
VFR
Wind Visibility
240° at 8 knots 10,000+ meters
Clouds
  • Clear skies
Temperature Dewpoint
3°C / 37°F 2°C / 36°F
Humidity Altimeter Pressure
93% 30.06" Hg 1017.92 hPa